Time;durP1;ratioP1;P1;durP2;ratioP2;P2;SDS_P1;SDS_P2;PMS_P1;PMS_P2;Temp;Humidity;BMP_temperature;BMP_pressure;BME280_temperature;BME280_humidity;BME280_pressure;Samples;Min_cycle;Max_cycle;Signal;HPM_P1;HPM_P2
2021/05/29 00:01:04;;;;;;;1.00;0.20;;;13.80;99.90;;;13.24;75.37;100870.56;4988677;28;20041;-57
2021/05/29 00:03:31;;;;;;;0.82;0.20;;;13.70;99.90;;;13.27;74.95;100874.66;4988092;28;20178;-55
2021/05/29 00:05:58;;;;;;;2.55;0.40;;;13.70;99.90;;;13.28;75.41;100876.31;4988455;28;20023;-54
2021/05/29 00:08:24;;;;;;;1.95;0.20;;;13.80;99.90;;;13.32;75.00;100867.19;4988098;28;20077;-56
2021/05/29 00:10:54;;;;;;;2.58;0.20;;;13.80;99.90;;;13.36;74.65;100865.06;4988584;28;20152;-55
2021/05/29 00:13:22;;;;;;;2.70;0.20;;;13.80;99.90;;;13.35;74.52;100864.25;4988223;28;20073;-57
2021/05/29 00:15:48;;;;;;;0.28;0.10;;;13.80;99.90;;;13.38;74.21;100865.75;4988139;28;20113;-53
2021/05/29 00:18:15;;;;;;;0.95;0.20;;;13.80;99.90;;;13.36;74.53;100860.66;4970684;28;20030;-54
2021/05/29 00:20:41;;;;;;;3.55;0.20;;;13.80;99.90;;;13.38;74.69;100856.09;4988072;28;20466;-55
2021/05/29 00:23:09;;;;;;;1.65;0.20;;;13.90;99.90;;;13.36;75.41;100858.03;4988331;28;20038;-52
2021/05/29 00:25:36;;;;;;;2.70;0.20;;;13.80;99.90;;;13.36;74.86;100852.81;4970390;28;20030;-53
2021/05/29 00:28:03;;;;;;;1.42;0.10;;;13.80;99.90;;;13.36;74.84;100857.22;4988219;28;20042;-54
2021/05/29 00:30:29;;;;;;;0.50;0.20;;;13.90;99.90;;;13.38;74.46;100866.56;4988177;28;20153;-56
2021/05/29 00:32:56;;;;;;;0.52;0.20;;;13.90;99.90;;;13.37;74.37;100858.88;4989269;28;20080;-54
2021/05/29 00:35:23;;;;;;;2.88;0.20;;;13.80;99.90;;;13.41;74.05;100857.59;4992057;28;20057;-54
2021/05/29 00:37:49;;;;;;;1.25;0.20;;;13.90;99.90;;;13.46;73.70;100858.78;4992217;28;20483;-55
2021/05/29 00:40:16;;;;;;;1.15;0.22;;;13.90;99.90;;;13.49;73.36;100853.25;4974847;28;20117;-57
2021/05/29 00:42:42;;;;;;;0.50;0.20;;;13.90;99.90;;;13.48;73.42;100851.59;4974602;28;20042;-57
2021/05/29 00:45:08;;;;;;;2.13;0.20;;;14.00;99.90;;;13.51;72.97;100856.53;4992653;28;20042;-56
2021/05/29 00:47:35;;;;;;;3.25;0.50;;;14.00;99.90;;;13.52;72.89;100854.72;4991722;28;20405;-58
2021/05/29 00:50:07;;;;;;;3.50;0.20;;;14.00;99.90;;;13.51;73.21;100851.28;4991954;28;20533;-58
2021/05/29 00:52:35;;;;;;;3.60;0.10;;;14.00;99.90;;;13.52;73.03;100841.63;4992139;28;20061;-54
2021/05/29 00:55:07;;;;;;;0.43;0.20;;;14.00;99.90;;;13.53;73.05;100844.09;4991805;28;20038;-57
2021/05/29 00:57:34;;;;;;;0.35;0.10;;;14.00;99.90;;;13.52;73.13;100841.63;4991862;28;20046;-56
2021/05/29 00:59:59;;;;;;;1.38;0.22;;;14.00;99.90;;;13.47;73.01;100834.25;4991707;28;20034;-55
2021/05/29 01:02:26;;;;;;;0.60;0.55;;;14.00;99.90;;;13.47;73.11;100834.25;4991510;28;20070;-55
2021/05/29 01:04:52;;;;;;;1.38;0.13;;;14.00;99.90;;;13.48;73.03;100828.03;4973983;28;20034;-53
2021/05/29 01:07:18;;;;;;;1.15;0.20;;;14.00;99.90;;;13.48;72.87;100829.84;4991861;28;20490;-54
2021/05/29 01:09:45;;;;;;;3.65;0.20;;;14.00;99.90;;;13.46;73.11;100824.75;4991549;28;20425;-56
2021/05/29 01:12:17;;;;;;;1.42;0.30;;;13.90;99.90;;;13.47;73.42;100828.19;4991530;28;20559;-54
2021/05/29 01:14:50;;;;;;;0.30;0.10;;;14.00;99.90;;;13.47;73.08;100823.78;4973818;28;20116;-55
2021/05/29 01:17:16;;;;;;;1.17;0.15;;;14.00;99.90;;;13.48;72.90;100824.59;4958546;28;20061;-53
2021/05/29 01:19:42;;;;;;;1.02;0.20;;;13.90;99.90;;;13.45;73.13;100828.34;4990172;28;20409;-56
2021/05/29 01:22:10;;;;;;;3.83;0.20;;;14.00;99.90;;;13.44;73.25;100829.31;4991512;28;20045;-55
2021/05/29 01:24:37;;;;;;;2.15;0.17;;;13.90;99.90;;;13.46;73.25;100829.97;4991360;28;20034;-53
2021/05/29 01:27:05;;;;;;;1.08;0.20;;;13.90;99.90;;;13.44;73.32;100834.56;4991477;28;20445;-55
2021/05/29 01:29:31;;;;;;;0.50;0.10;;;13.90;99.90;;;13.45;73.52;100828.34;4991430;28;20038;-57
2021/05/29 01:32:05;;;;;;;1.50;0.20;;;13.90;99.90;;;13.49;73.49;100834.09;4991343;28;20034;-53
2021/05/29 01:34:36;;;;;;;1.80;0.20;;;13.90;99.90;;;13.46;73.95;100834.41;4973539;28;20501;-52
2021/05/29 01:37:04;;;;;;;0.65;0.10;;;13.90;99.90;;;13.54;73.75;100835.28;4991382;28;20435;-53
2021/05/29 01:39:31;;;;;;;1.80;0.10;;;14.00;99.90;;;13.59;73.40;100827.78;4991233;28;20037;-56
2021/05/29 01:41:59;;;;;;;1.33;0.20;;;14.10;99.90;;;13.59;73.49;100829.56;4990835;28;20490;-54
2021/05/29 01:44:25;;;;;;;0.50;0.20;;;14.10;99.90;;;13.59;73.52;100833.00;4967275;28;20043;-57
2021/05/29 01:46:53;;;;;;;1.75;0.38;;;14.10;99.90;;;13.56;73.80;100838.56;4971527;28;20042;-53
2021/05/29 01:49:20;;;;;;;1.98;0.20;;;14.10;99.90;;;13.52;74.11;100832.00;4968279;28;20364;-58
2021/05/29 01:51:46;;;;;;;2.08;0.20;;;14.00;99.90;;;13.42;74.62;100827.81;4951368;28;20089;-55
2021/05/29 01:54:16;;;;;;;1.23;0.20;;;14.00;99.90;;;13.34;75.39;100827.78;4969856;28;20371;-53
2021/05/29 01:56:43;;;;;;;0.63;0.17;;;13.90;99.90;;;13.29;75.31;100826.44;4982667;28;20045;-54
2021/05/29 01:59:10;;;;;;;0.60;0.20;;;13.80;99.90;;;13.31;75.15;100823.66;4972235;28;20038;-57
2021/05/29 02:01:36;;;;;;;1.98;0.22;;;13.80;99.90;;;13.34;75.29;100822.53;4990691;28;20034;-55
2021/05/29 02:04:03;;;;;;;1.48;0.13;;;13.80;99.90;;;13.33;74.92;100815.66;4989433;28;20034;-56
2021/05/29 02:06:29;;;;;;;1.38;0.10;;;13.80;99.90;;;13.36;74.81;100816.19;4988685;28;20176;-56
2021/05/29 02:08:55;;;;;;;1.95;0.77;;;13.80;99.90;;;13.38;74.32;100811.59;4985336;28;20034;-52
2021/05/29 02:11:21;;;;;;;0.98;0.20;;;13.80;99.90;;;13.33;74.53;100807.81;4987227;28;20410;-55
2021/05/29 02:13:47;;;;;;;2.13;0.20;;;13.80;99.90;;;13.29;74.77;100812.53;4990389;28;20061;-58
2021/05/29 02:16:13;;;;;;;2.40;0.40;;;13.80;99.90;;;13.21;75.25;100802.03;4989178;28;20037;-51
2021/05/29 02:18:41;;;;;;;2.67;0.20;;;13.80;99.90;;;13.09;75.88;100803.22;4972783;28;20049;-55
2021/05/29 02:21:16;;;;;;;0.30;0.20;;;13.70;99.90;;;13.02;76.45;100805.63;4989012;28;20050;-55
2021/05/29 02:23:45;;;;;;;3.42;0.30;;;13.60;99.90;;;12.98;76.24;100811.28;4990359;28;20042;-55
2021/05/29 02:26:14;;;;;;;0.30;0.20;;;13.50;99.90;;;12.96;76.25;100807.03;4989436;28;20041;-54
2021/05/29 02:28:43;;;;;;;0.50;0.20;;;13.50;99.90;;;12.99;76.25;100810.31;4988400;28;20592;-57
2021/05/29 02:31:12;;;;;;;0.70;0.30;;;13.50;99.90;;;13.04;75.89;100810.69;4988500;28;20118;-57
2021/05/29 02:33:39;;;;;;;1.40;0.20;;;13.50;99.90;;;13.07;75.87;100813.84;4970603;28;20120;-53
2021/05/29 02:36:07;;;;;;;2.95;0.73;;;13.60;99.90;;;13.14;75.41;100808.81;4969936;28;20042;-57
2021/05/29 02:38:34;;;;;;;0.85;0.10;;;13.60;99.90;;;13.20;75.12;100816.91;4985964;28;20034;-55
2021/05/29 02:41:02;;;;;;;3.30;0.70;;;13.70;99.90;;;13.26;75.01;100810.22;4972494;28;20062;-58
2021/05/29 02:43:28;;;;;;;0.80;0.20;;;13.70;99.90;;;13.23;75.25;100805.31;5141247;23;20420;-56
2021/05/29 02:45:54;;;;;;;1.48;0.10;;;13.70;99.90;;;13.26;75.46;100800.56;4951635;28;20039;-59
2021/05/29 02:48:21;;;;;;;0.77;0.10;;;13.70;99.90;;;13.26;75.17;100795.34;4953001;28;20046;-57
2021/05/29 02:50:47;;;;;;;1.02;0.20;;;13.70;99.90;;;13.26;75.06;100794.50;4968926;28;20031;-51
2021/05/29 02:53:16;;;;;;;0.63;0.15;;;13.80;99.90;;;13.28;75.43;100793.38;4968141;28;20042;-54
2021/05/29 02:55:43;;;;;;;2.10;0.20;;;13.80;99.90;;;13.32;74.83;100791.28;4940586;28;20127;-56
2021/05/29 02:58:09;;;;;;;1.38;0.20;;;13.80;99.90;;;13.34;74.74;100797.19;4964433;28;20078;-52
2021/05/29 03:00:53;;;;;;;0.95;0.20;;;13.90;99.90;;;13.35;75.22;100804.06;4970134;28;20027;-55
2021/05/29 03:03:19;;;;;;;3.58;0.20;;;13.80;99.90;;;13.34;74.83;100801.59;4969263;28;20775;-55
2021/05/29 03:05:48;;;;;;;1.13;0.20;;;13.80;99.90;;;13.34;74.83;100799.81;4969027;28;20058;-54
2021/05/29 03:08:15;;;;;;;1.23;0.17;;;13.80;99.90;;;13.35;75.21;100809.31;4952614;28;20045;-56
2021/05/29 03:10:44;;;;;;;0.40;0.15;;;13.90;99.90;;;13.32;75.02;100814.03;4968285;28;20051;-52
2021/05/29 03:13:11;;;;;;;1.88;0.20;;;13.80;99.90;;;13.28;75.31;100809.09;4948312;28;20039;-51
2021/05/29 03:15:37;;;;;;;1.50;0.20;;;13.80;99.90;;;13.26;75.46;100811.03;4968337;28;20146;-54
2021/05/29 03:18:06;;;;;;;0.50;0.20;;;13.70;99.90;;;13.21;75.79;100812.50;4968467;28;20043;-57
2021/05/29 03:20:34;;;;;;;0.68;0.20;;;13.70;99.90;;;13.21;75.96;100802.03;4969620;28;20031;-55
2021/05/29 03:23:01;;;;;;;1.05;0.30;;;13.70;99.90;;;13.18;76.27;100797.09;4968226;28;20526;-53
2021/05/29 03:25:30;;;;;;;1.25;0.30;;;13.70;99.90;;;13.16;76.24;100797.25;4967647;28;20050;-58
2021/05/29 03:27:56;;;;;;;2.60;0.20;;;13.70;99.90;;;13.21;76.02;100795.00;4944232;28;20031;-54
2021/05/29 03:30:26;;;;;;;0.80;0.20;;;13.70;99.90;;;13.23;76.12;100790.41;4969357;28;20147;-56
2021/05/29 03:32:53;;;;;;;2.40;0.17;;;13.70;99.90;;;13.26;75.80;100797.13;4969730;28;20031;-55
2021/05/29 03:35:20;;;;;;;0.90;0.20;;;13.70;99.90;;;13.30;75.65;100795.84;4967946;28;20565;-52
2021/05/29 03:37:46;;;;;;;3.22;0.20;;;13.80;99.90;;;13.31;75.96;100791.44;4968494;28;20058;-52
2021/05/29 03:40:14;;;;;;;0.73;0.20;;;13.80;99.90;;;13.37;75.14;100798.69;4969570;28;20086;-53
2021/05/29 03:42:42;;;;;;;0.95;0.20;;;13.80;99.90;;;13.45;74.51;100786.47;4966305;28;20121;-52
2021/05/29 03:45:14;;;;;;;0.68;0.20;;;13.90;99.90;;;13.55;73.85;100786.34;4968546;28;20058;-56
2021/05/29 03:47:42;;;;;;;1.13;0.20;;;14.00;99.90;;;13.61;73.54;100783.94;4966539;28;20035;-56
2021/05/29 03:50:11;;;;;;;1.10;0.20;;;14.10;99.90;;;13.64;73.66;100782.00;4968975;28;20041;-55
2021/05/29 03:52:37;;;;;;;0.20;0.10;;;14.10;99.90;;;13.66;73.63;100777.41;4968182;28;20170;-55
2021/05/29 03:55:04;;;;;;;2.70;0.30;;;14.10;99.90;;;13.64;73.55;100771.50;4968090;28;20039;-55
2021/05/29 03:57:30;;;;;;;2.33;0.57;;;14.10;99.90;;;13.66;73.60;100780.03;4951414;28;20452;-59
2021/05/29 03:59:56;;;;;;;2.75;0.20;;;14.10;99.90;;;13.67;73.57;100779.88;4968985;28;20097;-58
2021/05/29 04:02:24;;;;;;;0.35;0.13;;;14.20;99.90;;;13.66;73.72;100782.66;4968825;28;20620;-55
2021/05/29 04:04:50;;;;;;;1.42;0.10;;;14.20;99.90;;;13.71;73.62;100782.97;4968774;28;20177;-53
2021/05/29 04:07:16;;;;;;;2.30;0.20;;;14.20;99.90;;;13.74;73.20;100783.47;4968153;28;20133;-57
2021/05/29 04:09:42;;;;;;;3.33;0.20;;;14.20;99.90;;;13.81;73.09;100781.06;4968883;28;20035;-51
2021/05/29 04:12:09;;;;;;;0.85;0.57;;;14.30;99.90;;;13.84;73.23;100783.38;4968736;28;20097;-54
2021/05/29 04:14:35;;;;;;;0.60;0.20;;;14.30;99.90;;;13.86;73.09;100789.25;4968725;28;20046;-60
2021/05/29 04:17:02;;;;;;;0.68;0.10;;;14.30;99.90;;;13.80;73.43;100777.63;4968613;28;20061;-61
2021/05/29 04:19:28;;;;;;;1.35;0.30;;;14.30;99.90;;;13.80;73.52;100776.81;4968622;28;20038;-49
2021/05/29 04:21:54;;;;;;;3.22;0.20;;;14.30;99.90;;;13.81;73.60;100778.44;4968681;28;20118;-50
2021/05/29 04:24:20;;;;;;;2.55;0.30;;;14.30;99.90;;;13.84;73.46;100773.72;4968515;28;20118;-54
2021/05/29 04:26:46;;;;;;;0.40;0.17;;;14.30;99.90;;;13.91;73.33;100771.28;4968989;28;20033;-54
2021/05/29 04:29:12;;;;;;;1.25;0.30;;;14.40;99.90;;;13.95;73.27;100770.00;4968534;28;20042;-49
2021/05/29 04:31:38;;;;;;;2.15;0.17;;;14.40;99.90;;;13.98;73.27;100771.47;4968501;28;20030;-55
2021/05/29 04:34:04;;;;;;;0.63;0.20;;;14.50;99.90;;;14.06;72.48;100776.75;4968962;28;20038;-48
2021/05/29 04:36:29;;;;;;;4.97;0.38;;;14.50;99.90;;;14.17;72.01;100784.31;4968691;28;20121;-51
2021/05/29 04:38:55;;;;;;;1.55;0.20;;;14.60;99.90;;;14.32;71.21;100781.88;4968866;28;20125;-54
2021/05/29 04:41:21;;;;;;;0.90;0.20;;;14.70;99.90;;;14.42;71.22;100778.16;4968860;28;20082;-55
2021/05/29 04:43:48;;;;;;;0.95;0.25;;;14.90;99.90;;;14.45;71.61;100780.44;4968302;28;20129;-57
2021/05/29 04:46:14;;;;;;;1.00;0.20;;;15.00;99.90;;;14.52;71.59;100783.25;4969141;28;20031;-49
2021/05/29 04:48:43;;;;;;;0.55;0.17;;;15.00;99.90;;;14.55;71.08;100768.00;4966964;28;20315;-52
2021/05/29 04:51:12;;;;;;;2.22;0.20;;;15.00;99.90;;;14.63;70.66;100774.25;4968702;28;20397;-52
2021/05/29 04:53:58;;;;;;;1.67;0.20;;;15.10;99.90;;;14.70;70.36;100776.03;4967254;28;20328;-52
2021/05/29 04:56:24;;;;;;;2.88;0.20;;;15.10;99.90;;;14.81;70.19;100767.84;4966966;28;20099;-54
2021/05/29 04:58:50;;;;;;;0.32;0.20;;;15.30;99.90;;;14.89;70.11;100769.66;4968524;28;20368;-53
2021/05/29 05:01:16;;;;;;;3.95;0.30;;;15.30;99.90;;;14.99;69.96;100770.28;4968713;28;20050;-56
2021/05/29 05:03:44;;;;;;;41.42;23.85;;;15.40;99.90;;;15.01;70.08;100767.50;4968220;28;20445;-46
2021/05/29 05:06:11;;;;;;;17.50;11.10;;;15.50;99.90;;;15.03;69.13;100763.72;4968449;28;20035;-54
2021/05/29 05:08:37;;;;;;;6.30;2.72;;;15.50;99.90;;;15.12;68.82;100769.78;4949531;28;20049;-52
2021/05/29 05:11:03;;;;;;;0.55;0.20;;;15.50;99.90;;;15.20;68.07;100767.13;4968158;28;20039;-46
2021/05/29 05:13:29;;;;;;;2.20;0.30;;;15.70;99.90;;;15.29;67.69;100755.63;4968438;28;20209;-51
2021/05/29 05:15:55;;;;;;;1.55;0.20;;;15.70;99.90;;;15.38;67.46;100754.63;4946373;28;20050;-49
2021/05/29 05:18:22;;;;;;;2.65;1.05;;;15.80;99.90;;;15.45;66.80;100771.34;4958314;28;20089;-51
2021/05/29 05:20:50;;;;;;;1.55;0.20;;;15.90;99.90;;;15.41;67.01;100762.16;4934993;29;20054;-46
2021/05/29 05:23:18;;;;;;;0.30;0.10;;;15.90;99.90;;;15.42;66.88;100769.06;4935236;29;20089;-46
2021/05/29 05:25:44;;;;;;;0.73;0.15;;;16.00;99.90;;;15.51;66.59;100762.81;4934950;29;20495;-48
2021/05/29 05:28:10;;;;;;;0.40;0.10;;;16.00;99.90;;;15.53;66.43;100762.63;4952689;29;20109;-51
2021/05/29 05:30:36;;;;;;;1.55;0.20;;;16.00;99.90;;;15.53;66.49;100765.25;4952519;29;20058;-53
2021/05/29 05:33:05;;;;;;;1.80;0.10;;;16.10;99.90;;;15.54;66.33;100765.09;4934994;29;20459;-56
2021/05/29 05:35:31;;;;;;;2.22;0.20;;;16.10;99.90;;;15.56;66.08;100772.78;4934909;29;20039;-54
2021/05/29 05:37:57;;;;;;;2.85;0.20;;;16.00;99.90;;;15.66;66.42;100772.59;4952152;29;20456;-54
2021/05/29 05:40:23;;;;;;;1.67;0.20;;;16.10;99.90;;;15.68;66.14;100771.44;4951993;29;20118;-52
2021/05/29 05:42:49;;;;;;;0.40;0.10;;;16.20;99.90;;;15.86;65.77;100776.47;4952108;29;20153;-47
2021/05/29 05:45:16;;;;;;;0.52;0.20;;;16.20;99.90;;;15.85;65.80;100767.78;4951978;29;20051;-49
2021/05/29 05:47:43;;;;;;;5.55;0.40;;;16.30;99.90;;;15.97;65.26;100759.50;4952148;29;20035;-51
2021/05/29 05:50:10;;;;;;;3.55;1.17;;;16.30;99.90;;;16.10;65.08;100755.31;4952400;29;20031;-52
2021/05/29 05:52:39;;;;;;;1.95;0.20;;;16.40;99.90;;;16.43;64.27;100760.38;4951992;29;20054;-53
2021/05/29 05:55:07;;;;;;;0.50;0.20;;;16.80;99.90;;;16.60;63.54;100760.06;4935022;29;20035;-51
2021/05/29 05:57:34;;;;;;;0.88;0.20;;;17.10;99.90;;;16.90;63.11;100758.38;4952132;29;20154;-51
2021/05/29 06:00:01;;;;;;;1.38;0.20;;;17.30;99.90;;;17.21;61.96;100765.31;4952332;29;20028;-50
2021/05/29 06:02:27;;;;;;;0.43;0.10;;;17.60;99.90;;;17.35;61.40;100756.59;4951976;29;20086;-48
2021/05/29 06:04:56;;;;;;;1.42;0.20;;;17.80;99.90;;;17.31;61.25;100768.50;4951953;29;20162;-49
2021/05/29 06:07:22;;;;;;;7.25;0.30;;;17.90;99.90;;;17.44;61.31;100759.97;4952403;29;20035;-46
2021/05/29 06:09:48;;;;;;;0.98;0.20;;;17.90;99.90;;;17.40;61.24;100761.31;4951813;29;20424;-48
2021/05/29 06:12:14;;;;;;;0.50;0.30;;;17.90;99.90;;;17.50;61.31;100765.28;4934409;29;20126;-48
2021/05/29 06:20:11;;;;;;;4.03;0.55;;;17.90;99.90;;;17.18;61.88;100770.94;4951967;29;20050;-51
2021/05/29 06:22:39;;;;;;;1.85;0.50;;;17.80;99.90;;;17.22;61.75;100773.03;4934071;29;20031;-47
2021/05/29 06:25:10;;;;;;;2.90;1.42;;;17.70;99.90;;;17.27;61.24;100772.47;4927441;28;20066;-47
2021/05/29 06:27:37;;;;;;;2.17;0.70;;;17.70;99.90;;;17.22;61.54;100777.47;4970998;28;20098;-49
2021/05/29 06:30:06;;;;;;;1.38;0.30;;;17.70;99.90;;;17.17;61.80;100775.38;4952380;28;20043;-47
2021/05/29 06:32:32;;;;;;;4.45;0.28;;;17.80;99.90;;;17.23;61.91;100776.47;4952895;28;20043;-46
2021/05/29 06:34:57;;;;;;;1.95;0.30;;;17.70;99.90;;;17.40;61.41;100783.22;4970552;28;20579;-48
2021/05/29 06:37:23;;;;;;;1.40;0.10;;;17.70;99.90;;;17.25;61.70;100774.47;4971049;28;20043;-47
2021/05/29 06:39:49;;;;;;;1.55;0.25;;;17.80;99.90;;;17.28;61.91;100779.38;4970780;28;20121;-51
2021/05/29 06:42:15;;;;;;;1.25;0.20;;;17.70;99.90;;;17.54;60.91;100779.75;4970689;28;20038;-49
2021/05/29 06:44:41;;;;;;;0.98;0.20;;;18.00;99.90;;;17.64;60.66;100773.38;4970192;28;20480;-48
2021/05/29 06:47:08;;;;;;;4.25;0.20;;;18.20;99.70;;;17.79;60.49;100782.13;4970519;28;20138;-49
2021/05/29 06:49:38;;;;;;;2.05;0.20;;;18.40;99.40;;;18.42;58.92;100789.34;4970566;28;20031;-49
2021/05/29 06:52:09;;;;;;;1.20;0.10;;;18.90;99.00;;;19.10;57.39;100785.25;4952802;28;20501;-48
2021/05/29 07:00:08;;;;;;;5.33;0.40;;;20.40;94.80;;;20.84;53.01;100784.72;4970555;28;20073;-49
2021/05/29 07:02:34;;;;;;;3.40;0.20;;;22.10;90.50;;;21.04;52.52;100783.91;4953091;28;20043;-51
2021/05/29 07:05:01;;;;;;;0.73;0.20;;;22.40;86.90;;;22.01;49.79;100785.69;4952490;28;20047;-50
2021/05/29 07:07:27;;;;;;;1.80;0.25;;;23.50;80.70;;;22.58;48.08;100784.75;4970097;28;20438;-48
2021/05/29 07:09:54;;;;;;;2.60;0.50;;;24.60;72.90;;;22.43;48.02;100781.59;4952085;28;20398;-50
2021/05/29 07:12:20;;;;;;;2.50;0.32;;;24.10;70.80;;;21.76;49.14;100783.72;4970118;28;20034;-47
2021/05/29 07:14:45;;;;;;;0.60;0.10;;;23.40;72.40;;;22.26;47.60;100778.63;4970049;28;20057;-48
2021/05/29 07:17:11;;;;;;;0.90;0.20;;;23.50;72.00;;;22.76;46.12;100774.19;4969884;28;20315;-49
2021/05/29 07:19:37;;;;;;;1.13;0.10;;;23.90;69.80;;;22.68;45.90;100776.31;4952247;28;20043;-49
2021/05/29 07:22:03;;;;;;;0.30;0.10;;;24.00;68.40;;;22.41;46.72;100779.16;4969482;28;20478;-47
2021/05/29 07:24:31;;;;;;;1.08;0.20;;;23.80;67.70;;;22.22;46.72;100781.91;4969579;28;20035;-47
2021/05/29 07:26:57;;;;;;;1.70;0.55;;;23.40;68.60;;;22.14;46.91;100775.84;4969510;28;20026;-50
2021/05/29 07:29:24;;;;;;;1.40;0.10;;;23.20;68.70;;;22.24;46.62;100777.22;4969495;28;20035;-48
2021/05/29 07:31:51;;;;;;;0.73;0.40;;;23.20;69.20;;;22.23;47.24;100772.91;4969489;28;20039;-51
2021/05/29 07:34:17;;;;;;;1.52;0.20;;;23.20;69.50;;;22.60;46.83;100771.25;4969491;28;20039;-46
2021/05/29 07:36:43;;;;;;;0.95;0.20;;;23.40;69.80;;;23.27;45.48;100770.47;4969668;28;20101;-50
2021/05/29 07:39:10;;;;;;;0.98;0.20;;;24.10;68.60;;;23.58;44.58;100771.41;4969309;28;20073;-49
2021/05/29 07:41:36;;;;;;;0.85;0.20;;;24.60;65.70;;;23.41;43.79;100760.50;4969145;28;20027;-50
2021/05/29 07:44:04;;;;;;;1.30;0.20;;;24.70;64.20;;;23.35;44.50;100766.72;4968880;28;20043;-48
2021/05/29 07:46:31;;;;;;;1.73;0.20;;;24.60;64.90;;;23.63;44.51;100774.22;4951783;28;20053;-47
2021/05/29 07:48:57;;;;;;;1.75;0.10;;;24.60;65.50;;;23.70;44.65;100770.41;4951466;28;20069;-49
2021/05/29 07:51:23;;;;;;;4.35;0.10;;;24.80;64.40;;;22.88;45.50;100773.50;4968957;28;20146;-49
2021/05/29 07:53:49;;;;;;;0.80;0.10;;;24.40;64.10;;;22.48;45.99;100777.25;4969285;28;20364;-48
2021/05/29 07:56:18;;;;;;;0.63;0.10;;;23.80;65.60;;;22.39;46.37;100778.53;4969565;28;20039;-50
2021/05/29 07:58:47;;;;;;;3.50;0.10;;;23.30;66.60;;;21.96;47.03;100785.50;4968994;28;20199;-48
2021/05/29 08:01:14;;;;;;;1.13;0.17;;;23.10;66.60;;;21.71;47.81;100778.28;4951409;28;20397;-48
2021/05/29 08:03:43;;;;;;;0.40;0.10;;;22.70;68.30;;;21.96;47.58;100777.53;4968960;28;20109;-48
2021/05/29 08:06:18;;;;;;;1.45;0.22;;;22.60;69.10;;;22.02;47.15;100787.34;4968921;28;20035;-47
2021/05/29 08:08:46;;;;;;;1.95;0.10;;;22.70;69.10;;;22.05;47.41;100784.28;4951516;28;20041;-46
2021/05/29 08:11:24;;;;;;;2.10;0.20;;;22.70;69.20;;;22.10;46.74;100781.78;4951338;28;20042;-48
2021/05/29 08:13:55;;;;;;;2.08;0.20;;;22.60;69.20;;;22.34;45.56;100783.69;4951354;28;20043;-51
2021/05/29 08:16:23;;;;;;;0.30;0.10;;;22.80;68.10;;;22.59;45.28;100782.91;4968541;28;20046;-46
2021/05/29 08:18:53;;;;;;;1.75;0.20;;;23.10;66.70;;;22.88;44.81;100778.81;4968899;28;20189;-48
2021/05/29 08:21:19;;;;;;;2.25;0.10;;;23.40;66.40;;;23.21;44.70;100781.16;4968898;28;20327;-47
2021/05/29 08:23:45;;;;;;;1.30;0.20;;;23.80;66.40;;;23.53;44.03;100781.88;4968863;28;20467;-48
2021/05/29 08:26:11;;;;;;;0.30;0.10;;;24.20;65.30;;;23.41;43.79;100782.59;4967973;28;20105;-48
2021/05/29 08:28:37;;;;;;;0.35;0.10;;;24.40;64.00;;;23.59;42.88;100781.00;4969170;28;20045;-49
2021/05/29 08:31:04;;;;;;;1.30;0.20;;;24.40;63.10;;;23.49;43.05;100774.31;4967358;28;20498;-47
2021/05/29 08:33:30;;;;;;;1.67;0.10;;;24.40;62.90;;;23.70;42.98;100780.25;4968925;28;20043;-50
2021/05/29 08:35:57;;;;;;;0.90;0.10;;;24.50;62.70;;;24.06;42.13;100766.91;4968651;28;20042;-50
2021/05/29 08:38:23;;;;;;;1.42;0.17;;;24.80;62.40;;;24.32;41.37;100775.56;4968830;28;20208;-51
2021/05/29 08:40:51;;;;;;;1.73;0.20;;;25.10;60.90;;;24.38;41.73;100772.00;4968654;28;20042;-49
2021/05/29 08:43:20;;;;;;;27.17;14.88;;;25.20;60.80;;;24.15;41.66;100762.84;4968463;28;20039;-50
2021/05/29 08:45:46;;;;;;;6.75;4.50;;;25.20;59.60;;;24.71;40.25;100766.94;4968499;28;20141;-50
2021/05/29 08:48:12;;;;;;;3.20;0.98;;;25.30;60.10;;;24.92;40.16;100767.44;4968758;28;20058;-48
2021/05/29 08:51:12;;;;;;;0.63;0.20;;;25.50;60.00;;;24.40;40.36;100765.41;4968845;28;20046;-50
2021/05/29 08:53:25;;;;;;;1.02;0.10;;;25.30;58.80;;;24.77;39.62;100765.22;4968550;28;20090;-48
2021/05/29 08:55:50;;;;;;;0.47;0.10;;;25.30;59.30;;;24.45;40.52;100762.06;4972901;28;20177;-51
2021/05/29 08:58:16;;;;;;;0.40;0.10;;;25.30;58.80;;;24.99;40.35;100768.16;4972323;28;20038;-49
2021/05/29 09:00:42;;;;;;;1.10;0.10;;;25.50;59.70;;;24.97;39.76;100770.25;4972487;28;20039;-46
2021/05/29 09:03:11;;;;;;;1.80;0.20;;;25.60;59.00;;;24.76;39.74;100769.72;4972330;28;20077;-47
2021/05/29 09:05:53;;;;;;;0.25;0.10;;;25.50;58.70;;;25.42;39.04;100765.09;4972447;28;20402;-51
2021/05/29 09:08:27;;;;;;;0.47;0.10;;;25.90;58.60;;;25.20;39.45;100764.88;4955192;28;20035;-49
2021/05/29 09:10:57;;;;;;;0.40;0.10;;;25.90;58.10;;;24.98;38.85;100755.88;4954818;28;20042;-55
2021/05/29 09:13:29;;;;;;;0.50;0.10;;;25.90;57.10;;;25.54;38.42;100757.84;4972300;28;20134;-55
2021/05/29 09:16:05;;;;;;;4.57;0.77;;;26.10;57.10;;;25.91;37.74;100755.69;4972201;28;20486;-49
2021/05/29 09:18:45;;;;;;;0.75;0.10;;;26.50;56.40;;;26.21;37.07;100762.63;4972033;28;20037;-49
2021/05/29 09:21:29;;;;;;;0.30;0.10;;;26.90;56.10;;;26.61;36.28;100765.19;4971920;28;20061;-54
2021/05/29 09:24:16;;;;;;;0.47;0.20;;;27.30;55.10;;;26.19;37.75;100778.09;4971755;28;20121;-51
2021/05/29 09:26:54;;;;;;;1.55;0.10;;;27.20;55.10;;;26.03;38.09;100775.13;4972352;28;20082;-53
2021/05/29 09:29:25;;;;;;;2.78;0.10;;;27.00;55.80;;;25.75;39.01;100769.78;4971884;28;20058;-52
2021/05/29 09:31:58;;;;;;;1.63;0.20;;;26.70;56.50;;;25.45;39.92;100775.31;4971779;28;20050;-54
2021/05/29 09:34:56;;;;;;;1.27;0.10;;;26.50;57.70;;;25.19;40.33;100771.25;4954248;28;20045;-55
2021/05/29 09:37:26;;;;;;;0.63;0.10;;;26.10;57.80;;;25.18;40.42;100772.31;4953980;28;20046;-53
2021/05/29 09:39:59;;;;;;;2.42;0.10;;;25.90;58.30;;;24.61;39.62;100772.03;4954020;28;20134;-53
2021/05/29 09:42:36;;;;;;;0.32;0.10;;;25.60;56.80;;;24.79;40.78;100765.78;4971634;28;20031;-51
2021/05/29 09:45:21;;;;;;;2.45;0.10;;;25.40;58.70;;;25.07;40.53;100770.47;4970138;28;20141;-45
2021/05/29 09:48:19;;;;;;;2.50;0.10;;;25.60;58.90;;;25.60;39.03;100769.44;4991424;28;20048;-53
2021/05/29 09:51:13;;;;;;;0.82;0.10;;;26.00;57.50;;;26.17;38.16;100764.16;4991123;28;20042;-49
2021/05/29 09:53:46;;;;;;;2.38;0.10;;;26.60;56.70;;;26.57;37.79;100759.53;4990795;28;20038;-49
2021/05/29 09:56:34;;;;;;;1.75;0.10;;;27.10;56.40;;;26.11;36.84;100760.59;4990732;28;20042;-52
2021/05/29 09:59:06;;;;;;;2.58;0.15;;;27.20;54.60;;;25.90;38.67;100754.06;4969997;28;20038;-47
2021/05/29 10:01:59;;;;;;;3.80;0.10;;;26.70;56.00;;;25.86;37.71;100752.13;4989841;28;20050;-49
2021/05/29 10:04:31;;;;;;;0.45;0.10;;;26.60;54.80;;;26.04;37.25;100744.72;4969277;28;20627;-52
2021/05/29 10:07:00;;;;;;;0.93;0.17;;;26.70;55.00;;;25.94;37.52;100749.88;4972812;28;20118;-54
2021/05/29 10:09:27;;;;;;;0.45;0.10;;;26.60;55.00;;;26.67;36.64;100748.19;4990885;28;20038;-45
2021/05/29 10:11:54;;;;;;;2.05;0.10;;;27.00;54.90;;;26.98;36.12;100730.75;4990461;28;20259;-45
2021/05/29 10:14:20;;;;;;;0.85;0.10;;;27.30;54.40;;;27.15;35.63;100734.22;4990812;28;20509;-50
2021/05/29 10:16:49;;;;;;;0.65;0.10;;;27.70;53.80;;;27.21;35.19;100733.22;4990326;28;20485;-50
2021/05/29 10:19:20;;;;;;;0.95;0.20;;;27.80;52.90;;;26.97;36.08;100737.97;4990606;28;20070;-54
2021/05/29 10:21:46;;;;;;;0.80;0.13;;;27.60;53.40;;;26.44;37.21;100733.16;4972641;28;20061;-45
2021/05/29 10:24:12;;;;;;;1.67;0.20;;;27.20;54.20;;;26.54;37.21;100738.63;4973066;28;20497;-44
2021/05/29 10:26:38;;;;;;;0.63;0.10;;;27.30;54.60;;;25.82;38.64;100733.09;4990197;28;20050;-46
2021/05/29 10:29:05;;;;;;;1.60;0.10;;;26.90;55.10;;;25.93;38.65;100734.91;4990365;28;20362;-47